CheckWX is a tool to help pilots better visualize weather data.  It is not intended as a substitute for an official pre-flight weather briefing.

12:23:34 UTC

KPWG METAR
Mc Gregor Executive Airport
Waco, Texas, USA
Current

28 mins ago

KPWG 221156Z AUTO 09007KT 3/4SM BR OVC003 08/08 A2994 RMK AO2 SLP158 T00830083 10089 20083 58010
Observed
Feb-22 @ 11:56 UTC
Wind
  • 090° at 7 KTS
Visibility
3/4 SM
Flight Rules
LIFR
Conditions
Mist
Cloud Levels
  • Overcast at 300' AGL
Temperature
C / 46°F
Dewpoint
C / 46°F
Humidity
100%
Altimeter
29.94" Hg
Pressure
1015.8 hPa
Previous

51 mins ago

KPWG 221133Z AUTO 10012KT 3/4SM BR OVC003 08/08 A2993 RMK AO2
Observed
Feb-22 @ 11:33 UTC
Wind
  • 100° at 12 KTS
Visibility
3/4 SM
Flight Rules
LIFR
Conditions
Mist
Cloud Levels
  • Overcast at 300' AGL
Temperature
C / 46°F
Dewpoint
C / 46°F
Humidity
100%
Altimeter
29.93" Hg
Pressure
1013.52 hPa
Previous

57 mins ago

KPWG 221127Z AUTO 10013KT 1 3/4SM BR OVC003 08/08 A2993 RMK AO2
Observed
Feb-22 @ 11:27 UTC
Wind
  • 100° at 13 KTS
Visibility
1 3/4 SM
Flight Rules
LIFR
Conditions
Mist
Cloud Levels
  • Overcast at 300' AGL
Temperature
C / 46°F
Dewpoint
C / 46°F
Humidity
100%
Altimeter
29.93" Hg
Pressure
1013.52 hPa